createdAt,value
2023-04-25T00:00:10.164Z,63.04
2023-04-25T00:03:02.108Z,62.39
2023-04-25T00:05:31.622Z,61.28
2023-04-25T00:08:00.903Z,62.39
2023-04-25T00:10:29.768Z,62.77
2023-04-25T00:13:03.234Z,63.31
2023-04-25T00:15:32.440Z,63.91
2023-04-25T00:18:01.721Z,61.24
2023-04-25T00:20:31.091Z,64.71
2023-04-25T00:23:01.603Z,64.26
2023-04-25T00:25:30.505Z,63.53
2023-04-25T00:28:01.088Z,64.47
2023-04-25T00:30:30.032Z,64.78
2023-04-25T00:32:59.162Z,63.74
2023-04-25T00:35:28.259Z,65.19
2023-04-25T00:37:57.443Z,66.31
2023-04-25T00:40:26.472Z,65.40
2023-04-25T00:42:56.177Z,65.12
2023-04-25T00:45:29.216Z,63.97
2023-04-25T00:47:58.783Z,63.97
2023-04-25T00:50:27.604Z,64.01
2023-04-25T00:52:57.117Z,62.85
2023-04-25T00:55:26.175Z,63.58
2023-04-25T00:57:55.445Z,64.28
2023-04-25T01:00:24.347Z,61.71
2023-04-25T01:02:55.181Z,60.43
2023-04-25T01:05:24.303Z,60.15
2023-04-25T01:07:53.700Z,61.39
2023-04-25T01:10:23.009Z,61.19
2023-04-25T01:12:52.200Z,61.61
2023-04-25T01:15:21.287Z,60.56
2023-04-25T01:17:50.477Z,59.99
2023-04-25T01:20:23.261Z,59.64
2023-04-25T01:22:54.738Z,64.56
2023-04-25T01:25:24.205Z,62.13
2023-04-25T01:27:53.509Z,64.24
2023-04-25T01:30:22.596Z,64.52
2023-04-25T01:32:52.021Z,64.49
2023-04-25T01:35:21.074Z,62.49
2023-04-25T01:37:50.261Z,63.02
2023-04-25T01:40:21.707Z,61.68
2023-04-25T01:42:51.000Z,63.62
2023-04-25T01:45:20.222Z,64.18
2023-04-25T01:47:50.989Z,61.36
2023-04-25T01:50:21.144Z,60.35
2023-04-25T01:52:51.315Z,59.82
2023-04-25T01:55:23.536Z,59.47
2023-04-25T01:58:10.974Z,59.19
2023-04-25T02:01:00.266Z,58.95
2023-04-25T02:03:34.927Z,58.84
2023-04-25T02:06:06.610Z,58.62
2023-04-25T02:08:39.605Z,58.57
2023-04-25T02:11:09.905Z,58.42
2023-04-25T02:13:46.389Z,58.59
2023-04-25T02:16:27.033Z,60.75
2023-04-25T02:18:56.607Z,59.42
2023-04-25T02:21:25.371Z,61.17
2023-04-25T02:23:55.016Z,61.82
2023-04-25T02:26:25.977Z,59.41
2023-04-25T02:28:55.250Z,58.87
2023-04-25T02:31:24.160Z,58.57
2023-04-25T02:33:54.017Z,58.48
2023-04-25T02:36:22.964Z,58.37
2023-04-25T02:38:51.990Z,58.29
2023-04-25T02:41:23.310Z,58.09
2023-04-25T02:43:53.840Z,59.93
2023-04-25T02:46:32.145Z,58.24
2023-04-25T02:49:07.644Z,57.98
2023-04-25T02:51:37.430Z,57.78
2023-04-25T02:54:07.593Z,57.73
2023-04-25T02:56:40.832Z,57.97
2023-04-25T02:59:16.763Z,57.74
2023-04-25T03:01:46.368Z,57.60
2023-04-25T03:04:15.557Z,57.41
2023-04-25T03:06:44.390Z,57.47
2023-04-25T03:09:13.601Z,57.55
2023-04-25T03:11:42.709Z,57.73
2023-04-25T03:14:12.127Z,57.44
2023-04-25T03:16:42.537Z,57.40
2023-04-25T03:19:11.667Z,57.63
2023-04-25T03:21:40.635Z,57.66
2023-04-25T03:24:09.668Z,57.36
2023-04-25T03:26:39.602Z,57.37
2023-04-25T03:29:08.702Z,57.32
2023-04-25T03:31:40.482Z,57.16
2023-04-25T03:34:11.272Z,58.93
2023-04-25T03:36:41.766Z,61.24
2023-04-25T03:39:11.359Z,59.70
2023-04-25T03:41:41.729Z,60.37
2023-04-25T03:44:15.635Z,65.12
2023-04-25T03:46:44.539Z,65.81
2023-04-25T03:49:17.761Z,66.00
2023-04-25T03:52:05.011Z,66.26
2023-04-25T03:54:39.052Z,65.40
2023-04-25T03:57:11.625Z,65.88
2023-04-25T03:59:42.449Z,65.91
2023-04-25T04:02:14.708Z,65.94
2023-04-25T04:04:46.696Z,66.06
2023-04-25T04:07:16.645Z,66.09
2023-04-25T04:09:49.408Z,66.34
2023-04-25T04:12:26.411Z,66.31
2023-04-25T04:14:55.696Z,66.67
2023-04-25T04:17:24.509Z,66.67
2023-04-25T04:19:56.229Z,66.92
2023-04-25T04:22:25.240Z,66.89
2023-04-25T04:24:57.883Z,67.17
2023-04-25T04:27:47.098Z,68.07
2023-04-25T04:30:30.554Z,67.86
2023-04-25T04:33:03.217Z,68.20
2023-04-25T04:35:34.099Z,68.26
2023-04-25T04:38:03.291Z,68.67
2023-04-25T04:40:36.467Z,69.22
2023-04-25T04:43:27.059Z,68.66
2023-04-25T04:46:06.103Z,68.20
2023-04-25T04:48:35.219Z,68.26
2023-04-25T04:51:26.696Z,68.56
2023-04-25T04:53:59.388Z,68.47
2023-04-25T04:56:44.521Z,68.08
2023-04-25T04:59:25.769Z,67.81
2023-04-25T05:02:18.356Z,69.24
2023-04-25T05:05:01.600Z,69.46
2023-04-25T05:07:54.319Z,68.58
2023-04-25T05:10:35.413Z,68.71
2023-04-25T05:13:17.853Z,68.73
2023-04-25T05:16:07.229Z,68.81
2023-04-25T05:18:58.072Z,68.27
2023-04-25T05:21:46.361Z,68.39
2023-04-25T05:24:35.478Z,68.31
2023-04-25T05:27:26.731Z,68.19
2023-04-25T05:30:16.495Z,67.95
2023-04-25T05:32:59.121Z,68.13
2023-04-25T05:35:29.688Z,68.13
2023-04-25T05:37:58.926Z,68.12
2023-04-25T05:40:47.726Z,67.73
2023-04-25T05:43:46.171Z,68.22
2023-04-25T05:46:34.415Z,66.93
2023-04-25T05:49:19.603Z,67.66
2023-04-25T05:52:22.087Z,67.84
2023-04-25T05:55:04.734Z,67.57
2023-04-25T05:57:36.804Z,67.42
2023-04-25T06:00:10.242Z,67.34
2023-04-25T06:02:47.235Z,66.83
2023-04-25T06:05:17.563Z,66.31
2023-04-25T06:07:48.670Z,66.37
2023-04-25T06:10:17.642Z,66.22
2023-04-25T06:12:48.155Z,66.31
2023-04-25T06:15:28.249Z,66.33
2023-04-25T06:18:04.153Z,66.44
2023-04-25T06:20:33.691Z,66.49
2023-04-25T06:23:03.716Z,65.82
2023-04-25T06:25:53.247Z,66.35
2023-04-25T06:28:25.490Z,66.42
2023-04-25T06:30:54.657Z,66.36
2023-04-25T06:33:25.312Z,66.25
2023-04-25T06:35:55.357Z,66.43
2023-04-25T06:38:28.942Z,66.50
2023-04-25T06:40:59.780Z,66.73
2023-04-25T06:43:34.599Z,67.11
2023-04-25T06:46:12.446Z,66.95
2023-04-25T06:48:46.915Z,67.23
2023-04-25T06:51:16.120Z,66.67
2023-04-25T06:53:46.851Z,67.19
2023-04-25T06:56:26.235Z,66.89
2023-04-25T06:59:11.261Z,67.13
2023-04-25T07:01:42.349Z,67.21
2023-04-25T07:04:17.646Z,67.27
2023-04-25T07:06:51.942Z,67.07
2023-04-25T07:09:28.477Z,66.79
2023-04-25T07:11:58.426Z,66.81
2023-04-25T07:14:29.162Z,66.44
2023-04-25T07:16:59.296Z,66.33
2023-04-25T07:19:30.874Z,65.87
2023-04-25T07:22:03.187Z,65.98
2023-04-25T07:24:34.064Z,65.11
2023-04-25T07:27:03.488Z,65.53
2023-04-25T07:30:00.558Z,65.24
2023-04-25T07:32:29.602Z,65.88
2023-04-25T07:34:59.199Z,65.12
2023-04-25T07:37:28.567Z,65.07
2023-04-25T07:40:06.322Z,65.35
2023-04-25T07:42:36.638Z,64.68
2023-04-25T07:45:11.603Z,64.58
2023-04-25T07:47:41.902Z,64.86
2023-04-25T07:50:12.117Z,64.77
2023-04-25T07:52:41.179Z,64.25
2023-04-25T07:55:19.490Z,64.37
2023-04-25T07:58:11.410Z,64.47
2023-04-25T08:00:44.957Z,64.17
2023-04-25T08:03:32.605Z,64.16
2023-04-25T08:06:05.732Z,63.83
2023-04-25T08:08:42.686Z,64.12
2023-04-25T08:11:15.228Z,63.96
2023-04-25T08:13:44.026Z,63.61
2023-04-25T08:16:14.911Z,63.44
2023-04-25T08:18:45.413Z,62.76
2023-04-25T08:21:14.759Z,62.31
2023-04-25T08:23:43.967Z,62.72
2023-04-25T08:26:16.638Z,62.71
2023-04-25T08:28:45.804Z,62.30
2023-04-25T08:31:16.634Z,62.29
2023-04-25T08:33:56.935Z,62.13
2023-04-25T08:36:45.887Z,61.96
2023-04-25T08:39:25.810Z,61.86
2023-04-25T08:42:23.412Z,61.57
2023-04-25T08:44:52.985Z,61.44
2023-04-25T08:47:24.921Z,61.45
2023-04-25T08:49:59.675Z,61.11
2023-04-25T08:52:35.681Z,60.84
2023-04-25T08:55:05.558Z,60.94
2023-04-25T08:57:36.746Z,60.70
2023-04-25T09:00:06.917Z,60.65
2023-04-25T09:02:41.741Z,60.47
2023-04-25T09:05:12.105Z,60.88
2023-04-25T09:07:41.557Z,60.30
2023-04-25T09:10:10.939Z,60.51
2023-04-25T09:12:41.891Z,59.08
2023-04-25T09:15:12.693Z,58.52
2023-04-25T09:18:09.506Z,58.33
2023-04-25T09:20:59.612Z,58.00
2023-04-25T09:23:31.456Z,58.31
2023-04-25T09:26:00.465Z,58.63
2023-04-25T09:28:31.024Z,58.85
2023-04-25T09:31:03.332Z,58.90
2023-04-25T09:33:42.905Z,58.76
2023-04-25T09:36:14.329Z,58.47
2023-04-25T09:39:04.711Z,58.17
2023-04-25T09:41:39.676Z,58.34
2023-04-25T09:44:09.260Z,58.41
2023-04-25T09:46:39.735Z,58.53
2023-04-25T09:49:16.781Z,58.06
2023-04-25T09:52:07.564Z,58.42
2023-04-25T09:54:57.009Z,58.40
2023-04-25T09:57:32.173Z,58.20
2023-04-25T10:00:05.852Z,58.21
2023-04-25T10:02:44.515Z,58.29
2023-04-25T10:05:22.474Z,58.42
2023-04-25T10:07:51.608Z,58.50
2023-04-25T10:10:24.502Z,58.79
2023-04-25T10:12:53.537Z,58.81
2023-04-25T10:15:23.741Z,58.89
2023-04-25T10:17:52.926Z,58.72
2023-04-25T10:20:24.458Z,58.33
2023-04-25T10:22:55.150Z,58.27
2023-04-25T10:25:25.559Z,57.92
2023-04-25T10:27:54.690Z,57.94
2023-04-25T10:30:23.907Z,58.02
2023-04-25T10:32:53.028Z,58.02
2023-04-25T10:35:26.517Z,57.93
2023-04-25T10:37:58.913Z,57.26
2023-04-25T10:40:28.523Z,57.08
2023-04-25T10:42:57.592Z,56.70
2023-04-25T10:45:27.900Z,56.77
2023-04-25T10:47:56.833Z,56.46
2023-04-25T10:50:39.143Z,56.49
2023-04-25T10:53:16.473Z,56.70
2023-04-25T10:55:51.714Z,56.23
2023-04-25T10:58:23.398Z,56.61
2023-04-25T11:00:57.619Z,56.83
2023-04-25T11:03:28.408Z,56.80
2023-04-25T11:05:58.987Z,56.54
2023-04-25T11:08:38.661Z,56.52
2023-04-25T11:11:07.963Z,56.36
2023-04-25T11:13:36.885Z,56.71
2023-04-25T11:16:13.015Z,56.76
2023-04-25T11:18:43.333Z,56.56
2023-04-25T11:21:14.297Z,56.52
2023-04-25T11:23:43.371Z,56.65
2023-04-25T11:26:12.777Z,56.04
2023-04-25T11:28:41.758Z,56.78
2023-04-25T11:31:11.571Z,57.12
2023-04-25T11:33:41.856Z,56.33
2023-04-25T11:36:11.868Z,56.08
2023-04-25T11:38:42.770Z,55.86
2023-04-25T11:41:12.616Z,55.62
2023-04-25T11:43:43.391Z,55.18
2023-04-25T11:46:13.076Z,55.51
2023-04-25T11:48:41.904Z,55.68
2023-04-25T11:51:11.505Z,55.78
2023-04-25T11:53:44.610Z,55.39
2023-04-25T11:56:14.082Z,55.31
2023-04-25T11:59:02.878Z,55.53
2023-04-25T12:01:44.724Z,55.45
2023-04-25T12:04:14.257Z,55.15
2023-04-25T12:06:44.646Z,55.53
2023-04-25T12:09:15.656Z,55.30
2023-04-25T12:11:45.234Z,55.77
2023-04-25T12:14:14.198Z,55.66
2023-04-25T12:16:44.543Z,55.74
2023-04-25T12:19:16.065Z,56.05
2023-04-25T12:21:57.294Z,55.76
2023-04-25T12:24:29.411Z,55.59
2023-04-25T12:27:04.490Z,54.79
2023-04-25T12:29:41.974Z,55.14
2023-04-25T12:32:17.987Z,54.76
2023-04-25T12:34:47.367Z,54.83
2023-04-25T12:37:16.755Z,54.35
2023-04-25T12:39:47.168Z,54.00
2023-04-25T12:42:16.411Z,53.93
2023-04-25T12:44:45.877Z,54.16
2023-04-25T12:47:15.218Z,53.54
2023-04-25T12:49:43.974Z,53.79
2023-04-25T12:52:13.022Z,53.68
2023-04-25T12:54:41.990Z,53.73
2023-04-25T12:57:13.099Z,53.35
2023-04-25T12:59:42.116Z,53.82
2023-04-25T13:02:12.316Z,53.98
2023-04-25T13:04:41.803Z,53.71
2023-04-25T13:07:10.904Z,54.15
2023-04-25T13:09:41.123Z,54.83
2023-04-25T13:12:10.392Z,54.78
2023-04-25T13:14:40.730Z,54.88
2023-04-25T13:17:09.781Z,54.84
2023-04-25T13:19:39.908Z,54.93
2023-04-25T13:22:09.333Z,55.01
2023-04-25T13:24:38.345Z,55.00
2023-04-25T13:27:07.393Z,55.34
2023-04-25T13:29:36.618Z,55.16
2023-04-25T13:32:07.220Z,55.35
2023-04-25T13:34:36.348Z,55.45
2023-04-25T13:37:06.132Z,55.60
2023-04-25T13:39:35.114Z,55.65
2023-04-25T13:42:04.185Z,55.54
2023-04-25T13:44:33.128Z,55.67
2023-04-25T13:47:02.305Z,55.62
2023-04-25T13:49:32.609Z,55.64
2023-04-25T13:52:01.686Z,55.60
2023-04-25T13:54:30.785Z,55.64
2023-04-25T13:57:00.325Z,55.67
2023-04-25T13:59:29.769Z,55.70
2023-04-25T14:01:58.816Z,55.75
2023-04-25T14:04:34.292Z,55.66
2023-04-25T14:07:23.230Z,55.69
2023-04-25T14:09:53.885Z,55.63
2023-04-25T14:12:24.177Z,55.60
2023-04-25T14:14:55.518Z,55.73
2023-04-25T14:17:24.733Z,55.76
2023-04-25T14:19:53.665Z,55.65
2023-04-25T14:22:24.254Z,55.79
2023-04-25T14:24:53.262Z,55.72
2023-04-25T14:27:22.739Z,55.74
2023-04-25T14:29:51.968Z,55.70
2023-04-25T14:32:21.580Z,55.53
2023-04-25T14:34:52.050Z,55.60
2023-04-25T14:37:22.018Z,55.42
2023-04-25T14:39:52.467Z,54.41
2023-04-25T14:42:21.667Z,54.44
2023-04-25T14:44:53.661Z,54.57
2023-04-25T14:47:22.931Z,54.48
2023-04-25T14:49:55.116Z,54.54
2023-04-25T14:52:25.701Z,54.76
2023-04-25T14:54:56.122Z,54.65
2023-04-25T14:57:27.188Z,54.97
2023-04-25T14:59:56.253Z,55.34
2023-04-25T15:02:25.792Z,55.55
2023-04-25T15:04:54.878Z,55.85
2023-04-25T15:07:24.017Z,55.76
2023-04-25T15:09:54.346Z,55.88
2023-04-25T15:12:27.033Z,56.02
2023-04-25T15:14:56.206Z,56.33
2023-04-25T15:17:25.262Z,56.21
2023-04-25T15:19:55.653Z,56.18
2023-04-25T15:22:24.805Z,55.63
2023-04-25T15:24:53.740Z,55.43
2023-04-25T15:27:24.854Z,55.63
2023-04-25T15:29:56.230Z,55.31
2023-04-25T15:32:26.274Z,55.61
2023-04-25T15:34:55.416Z,55.40
2023-04-25T15:37:24.950Z,55.28
2023-04-25T15:40:06.937Z,55.20
2023-04-25T15:42:38.117Z,55.17
2023-04-25T15:45:11.713Z,55.06
2023-04-25T15:47:41.354Z,54.90
2023-04-25T15:50:12.343Z,55.07
2023-04-25T15:52:45.193Z,54.84
2023-04-25T15:55:15.906Z,55.21
2023-04-25T15:57:47.818Z,55.04
2023-04-25T16:00:17.651Z,55.19
2023-04-25T16:02:48.397Z,55.16
2023-04-25T16:05:18.481Z,55.40
2023-04-25T16:07:48.158Z,55.46
2023-04-25T16:10:22.010Z,55.73
2023-04-25T16:12:52.519Z,55.67
2023-04-25T16:15:23.823Z,55.72
2023-04-25T16:17:53.601Z,55.73
2023-04-25T16:20:23.554Z,55.56
2023-04-25T16:22:52.786Z,55.60
2023-04-25T16:25:22.860Z,55.64
2023-04-25T16:27:53.097Z,55.66
2023-04-25T16:30:22.374Z,55.64
2023-04-25T16:32:51.254Z,55.71
2023-04-25T16:35:20.498Z,55.71
2023-04-25T16:37:49.238Z,55.72
2023-04-25T16:40:18.536Z,55.63
2023-04-25T16:42:47.951Z,55.71
2023-04-25T16:45:22.279Z,55.74
2023-04-25T16:47:51.870Z,55.81
2023-04-25T16:50:21.834Z,56.05
2023-04-25T16:52:51.159Z,55.89
2023-04-25T16:55:20.388Z,55.95
2023-04-25T16:57:49.324Z,55.90
2023-04-25T17:00:20.214Z,55.94
2023-04-25T17:02:49.312Z,56.00
2023-04-25T17:05:18.798Z,55.77
2023-04-25T17:07:47.866Z,55.84
2023-04-25T17:10:17.147Z,55.72
2023-04-25T17:12:47.893Z,55.63
2023-04-25T17:15:17.284Z,55.34
2023-04-25T17:17:47.894Z,55.40
2023-04-25T17:20:17.298Z,55.30
2023-04-25T17:22:46.127Z,55.84
2023-04-25T17:25:15.354Z,55.59
2023-04-25T17:27:44.118Z,55.47
2023-04-25T17:30:17.171Z,54.60
2023-04-25T17:32:47.828Z,54.53
2023-04-25T17:35:17.652Z,54.88
2023-04-25T17:37:46.763Z,54.60
2023-04-25T17:40:15.961Z,54.26
2023-04-25T17:42:46.067Z,53.26
2023-04-25T17:45:15.274Z,52.93
2023-04-25T17:47:44.142Z,52.83
2023-04-25T17:50:16.869Z,52.76
2023-04-25T17:52:48.447Z,51.78
2023-04-25T17:55:17.950Z,52.31
2023-04-25T17:57:46.708Z,52.76
2023-04-25T18:00:16.359Z,53.12
2023-04-25T18:02:47.587Z,53.02
2023-04-25T18:05:19.379Z,52.42
2023-04-25T18:07:49.670Z,52.94
2023-04-25T18:10:18.739Z,52.12
2023-04-25T18:12:47.931Z,52.81
2023-04-25T18:15:17.148Z,52.71
2023-04-25T18:17:46.177Z,51.77
2023-04-25T18:20:17.498Z,51.60
2023-04-25T18:22:49.733Z,51.50
2023-04-25T18:25:19.104Z,51.19
2023-04-25T18:27:47.878Z,51.00
2023-04-25T18:30:17.068Z,50.78
2023-04-25T18:32:46.827Z,50.88
2023-04-25T18:35:16.199Z,50.84
2023-04-25T18:37:45.030Z,51.05
2023-04-25T18:40:16.363Z,51.29
2023-04-25T18:42:46.036Z,51.14
2023-04-25T18:45:15.293Z,50.99
2023-04-25T18:47:44.109Z,50.38
2023-04-25T18:50:13.238Z,50.52
2023-04-25T18:52:42.081Z,50.51
2023-04-25T18:55:13.296Z,50.68
2023-04-25T18:57:44.143Z,50.96
2023-04-25T19:00:14.592Z,50.21
2023-04-25T19:02:44.164Z,50.20
2023-04-25T19:05:13.636Z,50.33
2023-04-25T19:07:42.400Z,50.37
2023-04-25T19:10:12.249Z,50.19
2023-04-25T19:12:41.435Z,50.35
2023-04-25T19:15:12.391Z,50.45
2023-04-25T19:17:42.317Z,50.91
2023-04-25T19:20:11.742Z,50.89
2023-04-25T19:22:41.688Z,50.41
2023-04-25T19:25:11.425Z,50.51
2023-04-25T19:27:40.476Z,50.51
2023-04-25T19:30:12.834Z,50.61
2023-04-25T19:32:45.379Z,51.08
2023-04-25T19:35:16.048Z,50.77
2023-04-25T19:37:47.034Z,51.08
2023-04-25T19:40:18.017Z,51.02
2023-04-25T19:42:48.323Z,50.95
2023-04-25T19:45:17.684Z,51.12
2023-04-25T19:47:49.132Z,51.04
2023-04-25T19:50:19.754Z,51.30
2023-04-25T19:52:52.076Z,51.70
2023-04-25T19:55:23.304Z,52.09
2023-04-25T19:57:52.238Z,51.72
2023-04-25T20:00:22.198Z,51.91
2023-04-25T20:02:52.537Z,52.24
2023-04-25T20:05:21.825Z,52.25
2023-04-25T20:07:50.572Z,52.29
2023-04-25T20:10:20.364Z,52.05
2023-04-25T20:12:49.557Z,52.04
2023-04-25T20:15:19.006Z,52.02
2023-04-25T20:17:48.579Z,51.97
2023-04-25T20:20:19.292Z,52.09
2023-04-25T20:22:48.872Z,51.88
2023-04-25T20:25:18.293Z,51.57
2023-04-25T20:27:47.594Z,51.68
2023-04-25T20:30:16.764Z,51.88
2023-04-25T20:32:45.924Z,51.59
2023-04-25T20:35:15.385Z,51.63
2023-04-25T20:37:46.518Z,51.56
2023-04-25T20:40:16.252Z,52.25
2023-04-25T20:42:46.042Z,51.66
2023-04-25T20:45:16.762Z,51.56
2023-04-25T20:47:45.989Z,51.49
2023-04-25T20:50:16.933Z,51.48
2023-04-25T20:52:49.275Z,51.52
2023-04-25T20:55:18.712Z,51.28
2023-04-25T20:57:50.294Z,51.50
2023-04-25T21:00:27.004Z,51.75
2023-04-25T21:02:57.707Z,51.61
2023-04-25T21:05:27.454Z,51.63
2023-04-25T21:07:58.337Z,51.63
2023-04-25T21:10:27.828Z,51.67
2023-04-25T21:12:58.618Z,51.65
2023-04-25T21:15:30.548Z,51.89
2023-04-25T21:17:59.545Z,51.69
2023-04-25T21:20:28.791Z,51.84
2023-04-25T21:23:02.607Z,51.90
2023-04-25T21:25:32.977Z,52.49
2023-04-25T21:28:03.511Z,51.82
2023-04-25T21:30:33.061Z,51.93
2023-04-25T21:33:02.254Z,51.77
2023-04-25T21:35:31.418Z,52.01
2023-04-25T21:38:01.636Z,51.87
2023-04-25T21:40:31.051Z,51.89
2023-04-25T21:43:00.168Z,52.83
2023-04-25T21:45:31.013Z,51.92
2023-04-25T21:48:00.346Z,52.04
2023-04-25T21:50:29.486Z,51.92
2023-04-25T21:52:59.026Z,52.54
2023-04-25T21:55:29.752Z,53.36
2023-04-25T21:57:58.672Z,53.64
2023-04-25T22:00:28.627Z,53.91
2023-04-25T22:02:58.028Z,53.79
2023-04-25T22:05:27.623Z,54.28
2023-04-25T22:07:57.604Z,54.35
2023-04-25T22:10:26.723Z,55.07
2023-04-25T22:12:57.263Z,55.16
2023-04-25T22:15:26.780Z,55.25
2023-04-25T22:17:56.123Z,55.15
2023-04-25T22:20:26.463Z,54.99
2023-04-25T22:22:56.433Z,55.26
2023-04-25T22:25:25.812Z,55.54
2023-04-25T22:27:55.407Z,55.64
2023-04-25T22:30:25.964Z,55.67
2023-04-25T22:32:54.947Z,55.78
2023-04-25T22:35:24.091Z,55.53
2023-04-25T22:37:53.168Z,55.79
2023-04-25T22:40:22.425Z,55.25
2023-04-25T22:42:51.753Z,55.59
2023-04-25T22:45:20.825Z,55.94
2023-04-25T22:47:51.136Z,56.13
2023-04-25T22:50:20.508Z,55.60
2023-04-25T22:52:49.284Z,55.56
2023-04-25T22:55:18.535Z,55.21
2023-04-25T22:57:47.357Z,55.00
2023-04-25T23:00:20.279Z,55.74
2023-04-25T23:02:50.501Z,55.46
2023-04-25T23:05:21.524Z,55.79
2023-04-25T23:07:50.869Z,55.92
2023-04-25T23:10:19.907Z,55.99
2023-04-25T23:12:48.669Z,56.23
2023-04-25T23:15:18.034Z,56.24
2023-04-25T23:17:47.590Z,56.26
2023-04-25T23:20:16.715Z,56.27
2023-04-25T23:22:47.175Z,55.71
2023-04-25T23:25:16.530Z,56.06
2023-04-25T23:27:45.637Z,56.52
2023-04-25T23:30:15.361Z,56.75
2023-04-25T23:32:44.374Z,56.59
2023-04-25T23:35:13.482Z,56.30
2023-04-25T23:37:42.468Z,56.56
2023-04-25T23:40:13.336Z,56.66
2023-04-25T23:42:43.089Z,56.78
2023-04-25T23:45:14.422Z,56.79
2023-04-25T23:47:43.446Z,56.34
2023-04-25T23:50:12.869Z,57.02
2023-04-25T23:52:41.898Z,56.98
2023-04-25T23:55:11.026Z,56.73
2023-04-25T23:57:44.322Z,57.21
